createdAt,value
2019-04-23T00:01:14.778Z,70.40
2019-04-23T00:03:41.977Z,69.50
2019-04-23T00:08:55.409Z,70.30
2019-04-23T00:11:15.727Z,70.70
2019-04-23T00:16:21.509Z,71.10
2019-04-23T00:18:58.891Z,71.30
2019-04-23T00:21:44.381Z,71.80
2019-04-23T00:24:38.357Z,72.00
2019-04-23T00:27:08.412Z,72.30
2019-04-23T00:29:40.078Z,72.50
2019-04-23T00:32:01.210Z,72.20
2019-04-23T00:34:42.511Z,72.90
2019-04-23T00:37:12.995Z,73.30
2019-04-23T00:39:40.754Z,73.50
2019-04-23T00:42:12.044Z,74.00
2019-04-23T00:47:11.949Z,74.40
2019-04-23T00:49:53.340Z,74.80
2019-04-23T00:52:20.434Z,74.20
2019-04-23T00:54:50.504Z,75.10
2019-04-23T00:59:57.803Z,75.40
2019-04-23T01:02:23.779Z,74.90
2019-04-23T01:04:59.682Z,74.70
2019-04-23T01:07:24.595Z,75.30
2019-04-23T01:10:02.769Z,76.10
2019-04-23T01:12:39.334Z,75.70
2019-04-23T01:15:07.483Z,75.50
2019-04-23T01:17:42.643Z,75.20
2019-04-23T01:20:24.616Z,75.30
2019-04-23T01:22:33.743Z,75.30
2019-04-23T01:25:47.408Z,76.30
2019-04-23T01:28:36.307Z,76.20
2019-04-23T01:31:08.877Z,76.00
2019-04-23T01:33:39.095Z,76.00
2019-04-23T01:36:20.642Z,76.00
2019-04-23T01:38:41.706Z,76.80
2019-04-23T01:41:13.151Z,76.70
2019-04-23T01:43:42.833Z,76.70
2019-04-23T01:46:14.477Z,77.20
2019-04-23T01:48:48.606Z,78.10
2019-04-23T01:51:20.455Z,78.20
2019-04-23T01:56:27.432Z,78.40
2019-04-23T01:58:57.119Z,78.70
2019-04-23T02:01:25.718Z,78.60
2019-04-23T02:03:56.096Z,78.60
2019-04-23T02:06:29.691Z,79.00
2019-04-23T02:09:00.430Z,80.50
2019-04-23T02:11:47.459Z,81.80
2019-04-23T02:14:06.966Z,82.50
2019-04-23T02:19:03.352Z,81.80
2019-04-23T02:21:39.511Z,82.90
2019-04-23T02:24:30.522Z,83.80
2019-04-23T02:29:23.631Z,83.10
2019-04-23T02:34:31.031Z,84.30
2019-04-23T02:36:54.787Z,85.60
2019-04-23T02:39:34.863Z,86.00
2019-04-23T02:44:26.483Z,87.60
2019-04-23T03:02:35.086Z,90.80
2019-04-23T03:05:00.938Z,90.30
2019-04-23T03:09:58.790Z,91.40
2019-04-23T03:15:11.263Z,91.30
2019-04-23T03:18:12.194Z,91.00
2019-04-23T03:20:46.077Z,91.30
2019-04-23T03:23:34.930Z,92.80
2019-04-23T03:28:28.387Z,94.60
2019-04-23T03:38:41.924Z,96.70
2019-04-23T03:41:09.126Z,97.30
2019-04-23T03:43:39.390Z,96.90
2019-04-23T03:46:15.718Z,97.50
2019-04-23T03:51:03.400Z,99.70
2019-04-23T03:56:14.563Z,99.90
2019-04-23T03:58:42.371Z,99.90
2019-04-23T04:01:14.007Z,99.90
2019-04-23T04:06:26.874Z,99.90
2019-04-23T04:08:56.286Z,99.90
2019-04-23T04:11:21.705Z,99.90
2019-04-23T04:16:21.866Z,99.90
2019-04-23T04:18:57.339Z,99.90
2019-04-23T04:24:05.114Z,99.90
2019-04-23T04:26:37.920Z,99.90
2019-04-23T04:28:58.810Z,99.90
2019-04-23T04:31:45.695Z,99.90
2019-04-23T04:34:10.808Z,99.90
2019-04-23T04:36:45.048Z,99.90
2019-04-23T04:39:10.060Z,99.90
2019-04-23T04:41:48.347Z,99.90
2019-04-23T04:44:37.362Z,99.90
2019-04-23T04:49:15.129Z,99.90
2019-04-23T04:54:13.950Z,99.90
2019-04-23T04:56:45.065Z,99.90
2019-04-23T05:01:58.837Z,99.90
2019-04-23T05:07:04.224Z,99.90
2019-04-23T05:14:33.696Z,99.90
2019-04-23T05:16:57.412Z,99.90
2019-04-23T05:22:07.073Z,99.90
2019-04-23T05:27:02.516Z,99.90
2019-04-23T05:29:57.431Z,99.90
2019-04-23T05:32:10.097Z,99.90
2019-04-23T05:34:32.124Z,99.90
2019-04-23T05:37:07.073Z,99.90
2019-04-23T05:42:11.193Z,99.90
2019-04-23T05:44:43.322Z,99.90
2019-04-23T05:47:19.035Z,99.40
2019-04-23T05:49:37.802Z,97.50
2019-04-23T05:52:16.079Z,96.00
2019-04-23T05:54:43.292Z,93.30
2019-04-23T05:57:06.895Z,91.60
2019-04-23T05:59:45.168Z,90.70
2019-04-23T06:04:42.766Z,90.50
2019-04-23T06:07:28.965Z,90.20
2019-04-23T06:09:50.324Z,91.10
2019-04-23T06:12:16.436Z,91.20
2019-04-23T06:14:52.538Z,90.70
2019-04-23T06:17:29.877Z,90.60
2019-04-23T06:19:58.621Z,90.70
2019-04-23T06:22:30.992Z,90.30
2019-04-23T06:27:27.769Z,90.10
2019-04-23T06:29:57.103Z,90.60
2019-04-23T06:34:56.711Z,91.10
2019-04-23T06:40:01.076Z,91.50
2019-04-23T06:42:29.278Z,90.90
2019-04-23T06:45:01.279Z,90.60
2019-04-23T06:47:29.363Z,90.10
2019-04-23T06:50:00.243Z,90.00
2019-04-23T06:52:25.455Z,88.80
2019-04-23T06:55:09.302Z,89.90
2019-04-23T06:57:43.760Z,87.50
2019-04-23T07:00:06.297Z,86.60
2019-04-23T07:02:38.796Z,85.70
2019-04-23T07:05:13.948Z,82.80
2019-04-23T07:10:07.292Z,76.60
2019-04-23T07:12:42.984Z,76.10
2019-04-23T07:15:16.345Z,73.90
2019-04-23T07:17:34.291Z,73.10
2019-04-23T07:20:14.911Z,71.90
2019-04-23T07:25:46.814Z,72.20
2019-04-23T07:28:06.698Z,69.10
2019-04-23T07:33:08.221Z,67.50
2019-04-23T07:35:32.002Z,64.50
2019-04-23T07:38:21.940Z,64.20
2019-04-23T07:40:40.631Z,62.40
2019-04-23T07:43:18.352Z,63.70
2019-04-23T07:46:04.205Z,63.30
2019-04-23T07:48:16.498Z,64.00
2019-04-23T07:50:51.995Z,64.50
2019-04-23T07:53:29.293Z,64.90
2019-04-23T07:56:02.261Z,63.80
2019-04-23T07:58:41.413Z,63.70
2019-04-23T08:01:34.519Z,62.80
2019-04-23T08:06:19.288Z,63.90
2019-04-23T08:09:47.761Z,64.40
2019-04-23T08:12:19.630Z,64.10
2019-04-23T08:14:48.137Z,64.60
2019-04-23T08:17:18.953Z,64.00
2019-04-23T08:23:28.310Z,65.00
2019-04-23T08:26:29.899Z,63.00
2019-04-23T08:31:16.421Z,63.20
2019-04-23T08:33:53.061Z,63.00
2019-04-23T08:39:43.382Z,63.70
2019-04-23T08:42:33.379Z,66.10
2019-04-23T08:48:09.828Z,68.00
2019-04-23T08:50:42.552Z,69.30
2019-04-23T08:53:17.893Z,69.70
2019-04-23T08:55:41.393Z,71.20
2019-04-23T08:58:06.023Z,70.10
2019-04-23T09:00:47.669Z,69.80
2019-04-23T09:03:25.354Z,68.90
2019-04-23T09:05:44.794Z,68.10
2019-04-23T09:08:17.313Z,67.20
2019-04-23T09:15:44.555Z,67.70
2019-04-23T09:18:16.373Z,68.20
2019-04-23T09:20:39.450Z,68.70
2019-04-23T09:23:13.662Z,69.30
2019-04-23T09:25:49.871Z,68.50
2019-04-23T09:30:55.786Z,69.30
2019-04-23T09:36:30.702Z,69.50
2019-04-23T09:39:07.576Z,70.00
2019-04-23T09:41:53.645Z,69.80
2019-04-23T09:47:34.801Z,69.70
2019-04-23T09:50:01.708Z,71.20
2019-04-23T09:52:27.568Z,70.70
2019-04-23T09:55:11.107Z,69.30
2019-04-23T09:57:28.068Z,68.50
2019-04-23T10:00:03.241Z,70.30
2019-04-23T10:02:21.964Z,71.50
2019-04-23T10:04:48.696Z,70.60
2019-04-23T10:07:18.049Z,71.60
2019-04-23T10:09:34.498Z,71.70
2019-04-23T10:12:05.021Z,72.70
2019-04-23T10:14:34.525Z,71.90
2019-04-23T10:17:04.299Z,71.20
2019-04-23T10:19:33.028Z,72.80
2019-04-23T10:22:01.780Z,70.80
2019-04-23T10:24:31.015Z,71.20
2019-04-23T10:27:00.122Z,71.60
2019-04-23T10:29:34.146Z,70.70
2019-04-23T10:32:03.862Z,70.80
2019-04-23T10:34:42.992Z,72.70
2019-04-23T10:37:02.948Z,71.90
2019-04-23T10:39:35.767Z,71.10
2019-04-23T10:42:03.399Z,71.10
2019-04-23T10:44:40.701Z,71.70
2019-04-23T10:47:58.360Z,71.70
2019-04-23T10:50:51.481Z,71.80
2019-04-23T10:56:10.135Z,71.10
2019-04-23T10:58:32.118Z,71.10
2019-04-23T11:01:01.704Z,73.10
2019-04-23T11:08:30.945Z,72.40
2019-04-23T11:11:03.808Z,71.20
2019-04-23T11:13:40.926Z,71.00
2019-04-23T11:16:39.463Z,71.30
2019-04-23T11:18:46.763Z,71.90
2019-04-23T11:21:13.422Z,72.20
2019-04-23T11:23:42.522Z,72.90
2019-04-23T11:26:15.627Z,72.40
2019-04-23T11:28:38.276Z,72.10
2019-04-23T11:31:31.588Z,72.50
2019-04-23T11:34:00.971Z,72.90
2019-04-23T11:43:55.365Z,72.30
2019-04-23T11:46:48.469Z,70.90
2019-04-23T11:59:25.751Z,71.40
2019-04-23T12:02:07.140Z,70.30
2019-04-23T12:04:58.010Z,71.10
2019-04-23T12:07:52.029Z,71.80
2019-04-23T12:10:40.990Z,71.70
2019-04-23T12:13:03.233Z,71.50
2019-04-23T12:15:35.635Z,71.70
2019-04-23T12:18:11.095Z,73.10
2019-04-23T12:20:35.832Z,72.00
2019-04-23T12:23:18.970Z,71.90
2019-04-23T12:25:42.357Z,72.50
2019-04-23T12:28:06.584Z,71.80
2019-04-23T12:30:40.728Z,71.30
2019-04-23T12:33:31.636Z,71.70
2019-04-23T12:40:38.169Z,72.40
2019-04-23T12:45:50.466Z,72.00
2019-04-23T12:50:48.818Z,71.80
2019-04-23T12:53:23.705Z,71.30
2019-04-23T12:58:20.172Z,71.50
2019-04-23T13:00:39.958Z,72.30
2019-04-23T13:03:19.632Z,72.60
2019-04-23T13:05:44.446Z,71.20
2019-04-23T13:10:48.048Z,71.80
2019-04-23T13:13:23.825Z,72.40
2019-04-23T13:15:48.598Z,72.30
2019-04-23T13:18:26.815Z,72.40
2019-04-23T13:20:42.437Z,72.20
2019-04-23T13:23:27.459Z,72.70
2019-04-23T13:26:13.503Z,73.50
2019-04-23T13:28:45.334Z,73.30
2019-04-23T13:31:18.091Z,72.60
2019-04-23T13:36:29.641Z,72.70
2019-04-23T13:38:47.230Z,72.40
2019-04-23T13:41:20.060Z,73.20
2019-04-23T13:44:00.104Z,73.20
2019-04-23T13:46:20.018Z,73.50
2019-04-23T13:48:56.178Z,73.70
2019-04-23T13:51:25.778Z,73.80
2019-04-23T13:56:40.765Z,73.60
2019-04-23T13:59:09.371Z,73.50
2019-04-23T14:01:32.294Z,73.40
2019-04-23T14:04:11.954Z,72.40
2019-04-23T14:06:43.474Z,72.40
2019-04-23T14:09:22.329Z,73.30
2019-04-23T14:11:59.838Z,73.50
2019-04-23T14:14:24.995Z,73.30
2019-04-23T14:16:48.377Z,72.70
2019-04-23T14:19:06.879Z,72.90
2019-04-23T14:21:44.528Z,73.10
2019-04-23T14:26:48.903Z,73.70
2019-04-23T14:29:21.310Z,73.00
2019-04-23T14:31:54.211Z,72.80
2019-04-23T14:34:15.908Z,72.80
2019-04-23T14:36:57.840Z,73.00
2019-04-23T14:41:53.427Z,73.60
2019-04-23T14:44:51.531Z,73.40
2019-04-23T14:47:23.620Z,73.00
2019-04-23T14:50:18.653Z,73.50
2019-04-23T14:52:31.020Z,72.40
2019-04-23T14:55:33.953Z,73.00
2019-04-23T14:57:35.026Z,73.40
2019-04-23T15:00:03.699Z,73.50
2019-04-23T15:02:36.338Z,72.90
2019-04-23T15:05:09.714Z,72.20
2019-04-23T15:10:10.526Z,72.60
2019-04-23T15:15:10.478Z,73.10
2019-04-23T15:17:33.986Z,72.50
2019-04-23T15:20:11.913Z,72.60
2019-04-23T15:25:21.575Z,73.90
2019-04-23T15:29:58.313Z,74.00
2019-04-23T15:35:49.907Z,74.20
2019-04-23T15:37:58.370Z,74.70
2019-04-23T15:40:16.513Z,74.50
2019-04-23T15:42:50.793Z,74.90
2019-04-23T15:47:49.042Z,75.60
2019-04-23T15:52:51.517Z,75.40
2019-04-23T15:55:12.199Z,75.40
2019-04-23T15:58:05.475Z,75.90
2019-04-23T16:00:14.065Z,75.30
2019-04-23T16:02:19.354Z,75.20
2019-04-23T16:04:49.029Z,75.40
2019-04-23T16:07:38.153Z,76.60
2019-04-23T16:10:26.303Z,75.80
2019-04-23T16:12:51.642Z,75.60
2019-04-23T16:15:36.069Z,76.20
2019-04-23T16:18:22.102Z,76.10
2019-04-23T16:23:15.182Z,76.20
2019-04-23T16:25:43.101Z,77.20
2019-04-23T16:28:18.922Z,77.30
2019-04-23T16:31:12.997Z,77.70
2019-04-23T16:33:18.648Z,77.60
2019-04-23T16:36:05.579Z,77.40
2019-04-23T16:40:58.908Z,77.10
2019-04-23T16:43:28.331Z,77.70
2019-04-23T16:48:46.246Z,77.30
2019-04-23T16:53:30.003Z,77.40
2019-04-23T16:56:11.555Z,77.00
2019-04-23T16:58:44.177Z,77.30
2019-04-23T17:01:10.163Z,78.00
2019-04-23T17:03:37.881Z,77.90
2019-04-23T17:06:10.563Z,78.20
2019-04-23T17:08:52.573Z,78.30
2019-04-23T17:11:15.302Z,79.40
2019-04-23T17:13:37.576Z,78.80
2019-04-23T17:16:18.256Z,79.10
2019-04-23T17:18:44.244Z,79.10
2019-04-23T17:21:23.761Z,79.50
2019-04-23T17:23:45.908Z,79.60
2019-04-23T17:26:13.759Z,80.00
2019-04-23T17:28:36.127Z,80.20
2019-04-23T17:33:43.933Z,80.10
2019-04-23T17:39:04.622Z,80.70
2019-04-23T17:47:06.746Z,81.50
2019-04-23T17:49:33.506Z,81.80
2019-04-23T17:52:17.038Z,82.40
2019-04-23T17:54:41.437Z,82.20
2019-04-23T17:57:23.847Z,82.30
2019-04-23T18:00:25.147Z,83.00
2019-04-23T18:05:06.263Z,83.00
2019-04-23T18:07:41.040Z,83.30
2019-04-23T18:10:13.286Z,83.70
2019-04-23T18:12:38.836Z,83.80
2019-04-23T18:15:04.775Z,84.20
2019-04-23T18:17:35.657Z,84.70
2019-04-23T18:20:14.945Z,85.10
2019-04-23T18:22:49.160Z,85.40
2019-04-23T18:25:21.367Z,85.90
2019-04-23T18:27:50.849Z,86.40
2019-04-23T18:30:49.571Z,87.00
2019-04-23T18:33:49.270Z,87.50
2019-04-23T18:35:44.621Z,87.80
2019-04-23T18:38:25.999Z,88.50
2019-04-23T18:41:02.519Z,88.70
2019-04-23T18:45:59.443Z,89.60
2019-04-23T18:53:48.463Z,90.40
2019-04-23T19:01:27.998Z,91.00
2019-04-23T19:04:29.132Z,91.30
2019-04-23T19:06:39.737Z,91.80
2019-04-23T19:09:49.232Z,92.10
2019-04-23T19:12:36.302Z,92.80
2019-04-23T19:15:11.935Z,92.90
2019-04-23T19:20:14.667Z,94.00
2019-04-23T19:22:46.081Z,94.40
2019-04-23T19:25:20.818Z,94.10
2019-04-23T19:30:28.094Z,94.40
2019-04-23T19:33:05.590Z,95.10
2019-04-23T19:35:58.960Z,95.20
2019-04-23T19:38:13.629Z,95.80
2019-04-23T19:43:19.101Z,97.00
2019-04-23T19:45:56.808Z,97.70
2019-04-23T19:51:44.210Z,99.40
2019-04-23T19:53:32.277Z,99.90
2019-04-23T19:56:05.580Z,99.90
2019-04-23T19:58:34.169Z,99.90
2019-04-23T20:01:11.761Z,99.90
2019-04-23T20:03:35.792Z,99.90
2019-04-23T20:06:06.332Z,99.90
2019-04-23T20:08:49.100Z,99.90
2019-04-23T20:11:02.843Z,99.90
2019-04-23T20:13:49.565Z,99.90
2019-04-23T20:18:46.017Z,99.90
2019-04-23T20:21:03.424Z,99.90
2019-04-23T20:29:12.026Z,99.50
2019-04-23T20:34:33.529Z,99.40
2019-04-23T20:36:52.862Z,99.40
2019-04-23T20:39:33.237Z,99.50
2019-04-23T20:49:42.741Z,99.90
2019-04-23T20:54:50.963Z,99.90
2019-04-23T20:57:42.903Z,99.90
2019-04-23T21:03:25.313Z,99.90
2019-04-23T21:10:37.251Z,99.90
2019-04-23T21:13:16.046Z,99.90
2019-04-23T21:15:45.592Z,99.90
2019-04-23T21:18:18.903Z,99.90
2019-04-23T21:20:42.763Z,99.90
2019-04-23T21:23:11.218Z,99.90
2019-04-23T21:28:26.699Z,99.90
2019-04-23T21:36:13.376Z,99.90
2019-04-23T21:41:39.641Z,99.90
2019-04-23T21:46:41.707Z,99.90
2019-04-23T21:51:46.457Z,99.90
2019-04-23T21:56:37.251Z,99.90
2019-04-23T22:04:17.689Z,99.90
2019-04-23T22:06:42.952Z,99.90
2019-04-23T22:09:16.856Z,99.90
2019-04-23T22:19:27.884Z,99.90
2019-04-23T22:21:50.279Z,99.90
2019-04-23T22:24:39.860Z,99.90
2019-04-23T22:27:02.818Z,99.90
2019-04-23T22:31:56.601Z,99.90
2019-04-23T22:34:41.327Z,99.90
2019-04-23T22:39:39.973Z,99.90
2019-04-23T22:42:22.416Z,99.90
2019-04-23T22:44:57.456Z,99.90
2019-04-23T22:47:06.081Z,99.90
2019-04-23T22:52:21.664Z,99.90
2019-04-23T22:55:02.116Z,99.90
2019-04-23T22:57:44.185Z,99.90
2019-04-23T23:00:08.403Z,99.90
2019-04-23T23:02:58.274Z,99.90
2019-04-23T23:05:37.555Z,99.90
2019-04-23T23:08:01.612Z,99.90
2019-04-23T23:10:28.120Z,99.90
2019-04-23T23:13:05.864Z,99.90
2019-04-23T23:15:42.068Z,99.90
2019-04-23T23:18:16.668Z,99.90
2019-04-23T23:20:44.915Z,99.90
2019-04-23T23:23:13.172Z,99.90
2019-04-23T23:25:39.322Z,99.90
2019-04-23T23:30:57.984Z,99.90
2019-04-23T23:33:17.240Z,99.90
2019-04-23T23:35:57.246Z,99.90
2019-04-23T23:38:30.538Z,99.90
2019-04-23T23:41:03.612Z,99.90
2019-04-23T23:43:25.733Z,99.90
2019-04-23T23:46:03.371Z,99.90
2019-04-23T23:48:29.171Z,99.90
2019-04-23T23:51:15.784Z,99.90
2019-04-23T23:58:52.037Z,99.90
